Time;durP1;ratioP1;P1;durP2;ratioP2;P2;SDS_P1;SDS_P2;PMS_P1;PMS_P2;Temp;Humidity;BMP_temperature;BMP_pressure;BME280_temperature;BME280_humidity;BME280_pressure;Samples;Min_cycle;Max_cycle;Signal;HPM_P1;HPM_P2
2022/02/09 00:02:21;;;;;;;;;;;10.40;99.90;;;8.74;100.00;101670.56;5044527;28;19929;-88
2022/02/09 00:05:00;;;;;;;;;;;10.50;99.90;;;8.79;100.00;101673.69;5032912;28;19929;-88
2022/02/09 00:07:34;;;;;;;;;;;10.40;99.90;;;8.76;100.00;101672.13;5051944;28;19999;-89
2022/02/09 00:10:01;;;;;;;;;;;10.40;99.90;;;8.83;100.00;101677.81;5051503;28;20379;-88
2022/02/09 00:12:35;;;;;;;;;;;10.40;99.90;;;8.86;100.00;101668.56;5051302;28;19929;-87
2022/02/09 00:15:16;;;;;;;;;;;10.40;99.90;;;8.86;100.00;101666.69;5050504;28;20324;-89
2022/02/09 00:17:51;;;;;;;;;;;10.40;99.90;;;8.79;100.00;101670.97;5051782;28;19935;-89
2022/02/09 00:32:07;;;;;;;;;;;10.40;99.90;;;8.84;100.00;101652.41;4986831;28;19981;-87
2022/02/09 00:43:09;;;;;;;;;;;10.40;99.90;;;8.74;100.00;101646.16;5050562;28;19928;-88
2022/02/09 00:59:54;;;;;;;;;;;10.40;99.90;;;8.81;100.00;101636.41;5032539;28;19935;-89
2022/02/09 01:38:16;;;;;;;;;;;10.40;99.90;;;8.65;100.00;101630.72;5031788;28;19924;-88
2022/02/09 01:57:28;;;;;;;;;;;10.30;99.90;;;8.59;100.00;101603.16;5031642;28;19952;-88
2022/02/09 01:59:55;;;;;;;;;;;10.20;99.90;;;8.56;100.00;101608.84;5047899;28;19952;-88
2022/02/09 02:02:23;;;;;;;;;;;10.20;99.90;;;8.58;100.00;101596.00;5049447;28;19951;-88
2022/02/09 02:04:51;;;;;;;;;;;10.20;99.90;;;8.56;100.00;101599.88;5049584;28;19928;-88
2022/02/09 02:07:28;;;;;;;;;;;10.20;99.90;;;8.49;100.00;101596.91;5049599;28;19968;-88
2022/02/09 02:10:03;;;;;;;;;;;10.20;99.90;;;8.53;100.00;101597.44;5031443;28;19929;-88
2022/02/09 02:12:34;;;;;;;;;;;10.20;99.90;;;8.51;100.00;101589.47;5049238;28;19928;-88
2022/02/09 02:15:24;;;;;;;;;;;10.20;99.90;;;8.56;100.00;101594.44;5048907;28;19929;-88
2022/02/09 02:17:50;;;;;;;;;;;10.20;99.90;;;8.60;100.00;101595.88;5030519;28;19935;-89
2022/02/09 02:20:31;;;;;;;;;;;10.20;99.90;;;8.56;100.00;101603.44;5049291;28;19938;-88
2022/02/09 02:23:24;;;;;;;;;;;10.20;99.90;;;8.51;100.00;101592.19;5047787;28;20376;-88
2022/02/09 02:26:05;;;;;;;;;;;10.20;99.90;;;8.48;100.00;101589.75;5048659;28;19936;-88
2022/02/09 02:28:46;;;;;;;;;;;10.20;99.90;;;8.47;100.00;101587.16;5048946;28;19928;-87
2022/02/09 02:36:59;;;;;;;;;;;10.20;99.90;;;8.45;100.00;101572.91;5046639;28;19964;-88
2022/02/09 02:40:01;;;;;;;;;;;10.20;99.90;;;8.43;100.00;101575.75;5048259;28;19933;-87
2022/02/09 03:10:11;;;;;;;;;;;10.20;99.90;;;8.50;100.00;101563.31;5044674;28;20381;-87
2022/02/09 03:12:43;;;;;;;;;;;10.20;99.90;;;8.45;100.00;101554.75;5040874;28;20392;-88
2022/02/09 03:15:28;;;;;;;;;;;10.20;99.90;;;8.48;100.00;101561.78;5053104;28;19974;-88
2022/02/09 03:18:09;;;;;;;;;;;10.20;99.90;;;8.46;100.00;101563.78;5052386;28;19929;-89
2022/02/09 03:20:43;;;;;;;;;;;10.20;99.90;;;8.41;100.00;101559.66;5052545;28;19983;-87
2022/02/09 03:23:28;;;;;;;;;;;10.20;99.90;;;8.48;100.00;101556.34;5052906;28;19940;-88
2022/02/09 03:26:19;;;;;;;;;;;10.20;99.90;;;8.53;100.00;101559.44;5052588;28;19925;-87
2022/02/09 03:42:20;;;;;;;;;;;10.20;99.90;;;8.52;100.00;101569.47;5034335;28;20027;-88
2022/02/09 03:42:55;;;;;;;;;;;10.20;99.90;;;8.47;100.00;101546.47;5052064;28;20450;-89
2022/02/09 03:45:52;;;;;;;;;;;10.20;99.90;;;8.46;100.00;101552.94;5051545;28;19928;-88
2022/02/09 03:48:32;;;;;;;;;;;10.20;99.90;;;8.51;100.00;101559.63;5051371;28;19975;-87
2022/02/09 03:54:00;;;;;;;;;;;10.20;99.90;;;8.55;100.00;101558.34;5034915;28;20040;-88
2022/02/09 03:56:42;;;;;;;;;;;10.20;99.90;;;8.61;100.00;101546.03;5032382;28;19962;-88
2022/02/09 03:59:12;;;;;;;;;;;10.10;99.90;;;8.67;100.00;101539.16;5044524;28;19964;-87
2022/02/09 04:01:43;;;;;;;;;;;10.20;99.90;;;8.65;100.00;101536.59;5051839;28;20409;-88
2022/02/09 04:04:10;;;;;;;;;;;10.20;99.90;;;8.59;100.00;101538.03;5052139;28;19964;-87
2022/02/09 04:06:39;;;;;;;;;;;10.20;99.90;;;8.61;100.00;101536.03;5051873;28;19929;-88
2022/02/09 04:09:12;;;;;;;;;;;10.20;99.90;;;8.64;100.00;101534.03;5051067;28;20377;-87
2022/02/09 04:11:44;;;;;;;;;;;10.20;99.90;;;8.55;100.00;101531.19;5051371;28;19940;-88
2022/02/09 04:14:20;;;;;;;;;;;10.20;99.90;;;8.56;100.00;101529.34;5050477;28;19929;-87
2022/02/09 04:16:58;;;;;;;;;;;10.20;99.90;;;8.55;100.00;101525.78;5033639;28;19929;-88
2022/02/09 04:19:34;;;;;;;;;;;10.20;99.90;;;8.54;100.00;101529.47;5034428;28;19925;-88
2022/02/09 04:36:12;;;;;;;;;;;10.20;99.90;;;8.40;100.00;101508.22;5031375;28;19933;-88
2022/02/09 04:38:45;;;;;;;;;;;10.20;99.90;;;8.43;100.00;101521.50;5032367;28;19939;-87
2022/02/09 04:52:25;;;;;;;;;;;10.20;99.90;;;8.43;100.00;101526.91;5049832;28;19939;-88
2022/02/09 04:54:58;;;;;;;;;;;10.20;99.90;;;8.41;100.00;101523.47;5050348;28;20308;-88
2022/02/09 04:57:33;;;;;;;;;;;10.20;99.90;;;8.41;100.00;101523.47;5050709;28;20012;-88
2022/02/09 05:00:18;;;;;;;;;;;10.20;99.90;;;8.45;100.00;101529.50;5012800;28;19940;-87
2022/02/09 05:25:15;;;;;;;;;;;10.00;99.90;;;8.32;100.00;101502.63;5049547;28;19972;-87
2022/02/09 05:27:52;;;;;;;;;;;10.10;99.90;;;8.28;100.00;101502.09;5050065;28;19983;-88
2022/02/09 05:30:19;;;;;;;;;;;10.10;99.90;;;8.26;100.00;101492.38;5030080;28;20708;-89
2022/02/09 05:32:47;;;;;;;;;;;10.00;99.90;;;8.29;100.00;101497.53;5041308;28;19929;-88
2022/02/09 05:35:15;;;;;;;;;;;10.10;99.90;;;8.29;100.00;101494.81;5049761;28;19929;-88
2022/02/09 05:37:43;;;;;;;;;;;10.00;99.90;;;8.35;100.00;101502.34;5050012;28;19929;-87
2022/02/09 05:40:11;;;;;;;;;;;10.10;99.90;;;8.37;100.00;101500.34;5049668;28;19944;-88
2022/02/09 05:42:38;;;;;;;;;;;10.00;99.90;;;8.41;100.00;101501.78;5048439;28;20312;-87
2022/02/09 05:45:09;;;;;;;;;;;10.10;99.90;;;8.37;100.00;101505.78;5049963;28;19929;-87
2022/02/09 05:50:33;;;;;;;;;;;10.10;99.90;;;8.39;100.00;101498.34;5001857;28;19933;-87
2022/02/09 05:53:14;;;;;;;;;;;10.10;99.90;;;8.42;100.00;101495.38;5049805;28;20415;-87
2022/02/09 05:55:48;;;;;;;;;;;10.10;99.90;;;8.37;100.00;101495.78;5048839;28;19925;-88
2022/02/09 05:58:33;;;;;;;;;;;10.10;99.90;;;8.37;100.00;101495.78;5049166;28;19936;-88
2022/02/09 06:01:01;;;;;;;;;;;10.10;99.90;;;8.35;100.00;101496.94;5049401;28;20355;-87
2022/02/09 06:03:28;;;;;;;;;;;10.10;99.90;;;8.38;100.00;101496.66;5049643;28;19982;-88
2022/02/09 06:05:55;;;;;;;;;;;10.00;99.90;;;8.36;100.00;101499.50;5049131;28;19935;-87
2022/02/09 06:08:24;;;;;;;;;;;10.00;99.90;;;8.38;100.00;101502.94;5030981;28;20023;-87
2022/02/09 06:11:04;;;;;;;;;;;10.00;99.90;;;8.36;100.00;101499.50;5049538;28;19925;-88
2022/02/09 06:13:48;;;;;;;;;;;10.10;99.90;;;8.35;100.00;101497.78;5049232;28;19924;-88
2022/02/09 06:21:58;;;;;;;;;;;10.00;99.90;;;8.35;100.00;101499.66;5032442;28;19933;-88
2022/02/09 06:27:22;;;;;;;;;;;10.00;99.90;;;8.28;100.00;101490.38;5034374;28;19929;-92
2022/02/09 06:30:19;;;;;;;;;;;10.10;99.90;;;8.29;100.00;101500.22;5037700;28;20359;-94
2022/02/09 06:39:07;;;;;;;;;;;10.10;99.90;;;8.34;100.00;101506.06;5034977;28;20014;-92
2022/02/09 06:45:25;;;;;;;;;;;10.10;99.90;;;8.37;100.00;101512.06;4973246;28;19937;-90
2022/02/09 06:57:14;;;;;;;;;;;10.10;99.90;;;8.18;100.00;101498.53;5044152;28;19936;-91
2022/02/09 06:59:50;;;;;;;;;;;10.10;99.90;;;8.21;100.00;101501.81;5034013;28;19925;-94
2022/02/09 07:03:03;;;;;;;;;;;10.10;99.90;;;8.21;100.00;101501.81;5036360;28;19929;-94
2022/02/09 07:05:30;;;;;;;;;;;10.10;99.90;;;8.25;100.00;101507.81;5019438;28;20019;-92
2022/02/09 07:08:01;;;;;;;;;;;10.00;99.90;;;8.28;100.00;101512.06;5053475;28;19932;-95
2022/02/09 07:10:28;;;;;;;;;;;10.00;99.90;;;8.29;100.00;101511.09;5050796;28;20016;-93
2022/02/09 07:12:55;;;;;;;;;;;10.00;99.90;;;8.29;100.00;101505.66;5034564;28;19998;-93
2022/02/09 07:16:03;;;;;;;;;;;10.00;99.90;;;8.27;100.00;101504.94;5034364;28;19924;-92
2022/02/09 07:19:06;;;;;;;;;;;;;;;;;;;;;
2022/02/09 08:01:40;;;;;;;;;;;10.20;99.90;;;8.53;100.00;101484.38;4798479;22;19929;-90
2022/02/09 08:04:08;;;;;;;;;;;10.20;99.90;;;8.56;100.00;101483.22;5052226;28;20010;-90
2022/02/09 08:06:36;;;;;;;;;;;10.20;99.90;;;8.66;100.00;101491.31;5051067;28;20424;-89
2022/02/09 08:09:08;;;;;;;;;;;10.20;99.90;;;8.75;100.00;101487.72;5051026;28;20024;-90
2022/02/09 08:11:41;;;;;;;;;;;10.30;99.90;;;8.76;100.00;101489.44;5051890;28;19928;-89
2022/02/09 08:28:19;;;;;;;;;;;10.30;99.90;;;8.73;100.00;101493.28;5051010;28;20417;-89
2022/02/09 08:33:43;;;;;;;;;;;10.30;99.90;;;8.79;100.00;101494.53;5007865;28;19945;-90
2022/02/09 08:36:11;;;;;;;;;;;10.30;99.90;;;8.73;100.00;101493.28;5020704;28;19929;-89
2022/02/09 08:38:41;;;;;;;;;;;10.30;99.90;;;8.70;100.00;101492.72;5050810;28;19937;-88
2022/02/09 08:41:09;;;;;;;;;;;10.40;99.90;;;8.78;100.00;101487.44;5039870;28;19929;-91
2022/02/09 08:43:36;;;;;;;;;;;10.40;99.90;;;8.87;100.00;101489.25;5047583;28;19936;-89
2022/02/09 08:46:03;;;;;;;;;;;10.40;99.90;;;8.88;100.00;101481.94;5049704;28;19932;-89
2022/02/09 08:48:30;;;;;;;;;;;10.40;99.90;;;8.84;100.00;101473.25;5032724;28;19929;-89
2022/02/09 08:50:58;;;;;;;;;;;10.40;99.90;;;8.86;100.00;101484.81;5050919;28;20047;-88
2022/02/09 08:53:26;;;;;;;;;;;10.50;99.90;;;8.92;100.00;101483.34;5049364;28;20010;-90
2022/02/09 08:55:53;;;;;;;;;;;10.50;99.90;;;8.90;100.00;101474.50;5032995;28;19940;-90
2022/02/09 08:58:21;;;;;;;;;;;10.60;99.90;;;8.88;100.00;101481.94;5031610;28;19929;-90
2022/02/09 09:00:49;;;;;;;;;;;10.50;99.90;;;8.97;100.00;101470.19;5049079;28;19928;-88
2022/02/09 09:03:20;;;;;;;;;;;10.50;99.90;;;9.02;100.00;101483.31;5036925;28;19972;-90
2022/02/09 09:05:50;;;;;;;;;;;10.60;99.90;;;9.02;100.00;101477.88;5050184;28;19935;-88
2022/02/09 09:08:34;;;;;;;;;;;10.60;99.90;;;9.12;100.00;101474.13;5031137;28;19975;-89
2022/02/09 09:11:22;;;;;;;;;;;10.60;99.90;;;9.15;100.00;101462.94;5039980;28;19936;-88
2022/02/09 09:58:19;;;;;;;;;;;11.10;99.90;;;9.61;100.00;101468.34;5045040;22;20241;-80
2022/02/09 10:03:47;;;;;;;;;;;11.10;99.90;;;9.58;100.00;101468.66;5035690;28;20014;-79
2022/02/09 10:34:11;;;;;;;;;;;11.30;99.90;;;10.03;100.00;101484.00;5024517;28;19936;-79
2022/02/09 10:36:49;;;;;;;;;;;11.40;99.90;;;9.95;100.00;101482.06;5020179;28;19933;-79
2022/02/09 10:39:18;;;;;;;;;;;11.40;99.90;;;9.95;100.00;101482.06;5022890;28;19970;-79
2022/02/09 10:41:56;;;;;;;;;;;11.40;99.90;;;9.95;100.00;101479.34;5028388;28;19939;-79
2022/02/09 10:44:26;;;;;;;;;;;11.40;99.90;;;9.91;100.00;101477.97;5025125;28;20397;-79
2022/02/09 10:46:57;;;;;;;;;;;11.40;99.90;;;9.97;100.00;101481.94;5021989;28;20356;-79
2022/02/09 10:49:29;;;;;;;;;;;11.40;99.90;;;10.03;100.00;101472.28;5026327;28;19928;-79
2022/02/09 10:52:07;;;;;;;;;;;11.40;99.90;;;10.01;100.00;101477.88;5023050;28;19929;-79
2022/02/09 10:54:35;;;;;;;;;;;11.40;99.90;;;10.04;100.00;101474.84;5023187;28;20397;-80
2022/02/09 10:57:07;;;;;;;;;;;11.50;99.90;;;10.11;100.00;101475.06;5026336;28;20018;-79
2022/02/09 10:59:40;;;;;;;;;;;11.60;99.90;;;10.14;100.00;101486.47;5027385;28;19933;-79
2022/02/09 11:02:11;;;;;;;;;;;11.50;99.90;;;10.15;100.00;101473.75;5025685;28;20419;-79
2022/02/09 11:04:43;;;;;;;;;;;11.50;99.90;;;10.16;100.00;101479.03;5022007;28;19978;-79
2022/02/09 11:07:11;;;;;;;;;;;11.60;99.90;;;10.21;100.00;101475.84;5021989;28;19925;-79
2022/02/09 11:09:38;;;;;;;;;;;11.60;99.90;;;10.23;100.00;101472.97;5023155;28;19980;-79
2022/02/09 11:12:06;;;;;;;;;;;11.60;99.90;;;10.26;99.12;101472.63;5019515;28;19929;-79
2022/02/09 11:14:33;;;;;;;;;;;11.60;99.90;;;10.25;99.16;101468.22;5020846;28;19933;-80
2022/02/09 11:17:03;;;;;;;;;;;11.60;99.90;;;10.23;100.00;101468.38;5019963;28;19969;-80
2022/02/09 11:19:35;;;;;;;;;;;11.60;99.90;;;10.24;100.00;101469.22;5025947;28;19987;-79
2022/02/09 11:22:09;;;;;;;;;;;11.70;99.90;;;10.32;100.00;101461.16;5023922;28;19937;-79
2022/02/09 11:24:42;;;;;;;;;;;11.70;99.90;;;10.25;99.29;101460.91;5032187;28;19936;-79
2022/02/09 11:27:13;;;;;;;;;;;11.70;99.90;;;10.25;98.55;101460.06;5026376;28;19929;-79
2022/02/09 11:29:47;;;;;;;;;;;11.70;99.90;;;10.20;97.98;101456.94;5027784;28;20744;-79
2022/02/09 11:32:25;;;;;;;;;;;11.70;99.90;;;10.23;99.23;101459.38;5031401;28;20389;-80
2022/02/09 11:35:43;;;;;;;;;;;11.70;99.90;;;10.16;99.47;101459.97;5027157;28;20311;-80
2022/02/09 11:41:13;;;;;;;;;;;11.70;99.90;;;10.07;98.81;101457.34;4999222;28;20188;-79
2022/02/09 11:43:50;;;;;;;;;;;11.60;99.90;;;10.06;99.77;101467.38;5029172;28;20096;-80
2022/02/09 11:47:00;;;;;;;;;;;11.60;99.90;;;9.96;99.68;101461.19;5025081;28;20847;-81
2022/02/09 12:09:33;;;;;;;;;;;11.30;99.90;;;9.69;100.00;101449.41;5021805;28;19933;-83
2022/02/09 12:12:03;;;;;;;;;;;11.30;99.90;;;9.73;100.00;101448.09;5027001;28;19929;-80
2022/02/09 12:14:53;;;;;;;;;;;11.30;99.90;;;9.79;100.00;101450.16;5009244;28;20381;-81
2022/02/09 12:17:48;;;;;;;;;;;11.30;99.90;;;9.78;100.00;101445.72;5023932;28;20427;-81
2022/02/09 12:20:24;;;;;;;;;;;11.30;99.90;;;9.81;100.00;101444.59;5024349;28;20736;-82
2022/02/09 12:23:04;;;;;;;;;;;11.40;99.90;;;9.83;100.00;101439.00;5021450;28;20016;-82
2022/02/09 12:25:44;;;;;;;;;;;11.40;99.90;;;9.77;100.00;101446.75;5023157;28;20390;-81
2022/02/09 12:28:15;;;;;;;;;;;11.30;99.90;;;9.79;100.00;101439.31;5022562;28;20019;-82
2022/02/09 12:30:42;;;;;;;;;;;11.40;99.90;;;9.76;100.00;101444.19;5020854;28;20642;-81
2022/02/09 12:33:18;;;;;;;;;;;11.30;99.90;;;9.73;100.00;101439.94;5025906;28;19925;-80
2022/02/09 12:35:45;;;;;;;;;;;11.30;99.90;;;9.72;100.00;101442.81;5023801;28;20777;-84
2022/02/09 12:38:12;;;;;;;;;;;11.30;99.90;;;9.67;100.00;101440.56;5037606;28;19936;-83
2022/02/09 12:40:39;;;;;;;;;;;11.30;99.90;;;9.71;100.00;101427.50;5041496;28;20003;-83
2022/02/09 12:43:12;;;;;;;;;;;11.30;99.90;;;9.68;100.00;101425.09;5031892;28;19936;-83
2022/02/09 12:45:40;;;;;;;;;;;11.30;99.90;;;9.71;100.00;101428.38;5028641;28;20223;-83
2022/02/09 12:48:11;;;;;;;;;;;11.30;99.90;;;9.72;100.00;101415.63;5025286;28;19932;-83
2022/02/09 12:50:40;;;;;;;;;;;11.30;99.90;;;9.66;100.00;101422.53;5028118;28;19936;-83
2022/02/09 12:53:08;;;;;;;;;;;11.30;99.90;;;9.73;100.00;101418.19;5029608;28;19925;-83
2022/02/09 12:55:37;;;;;;;;;;;11.30;99.90;;;9.75;100.00;101410.72;5028379;28;19925;-83
2022/02/09 12:58:07;;;;;;;;;;;11.30;99.90;;;9.79;100.00;101417.56;5019025;28;20032;-83
2022/02/09 13:00:40;;;;;;;;;;;11.30;99.90;;;9.79;100.00;101411.28;5029745;28;20358;-83
2022/02/09 13:03:10;;;;;;;;;;;11.30;99.90;;;9.77;100.00;101407.84;5030293;28;19996;-83
2022/02/09 13:05:43;;;;;;;;;;;11.30;99.90;;;9.81;100.00;101405.69;5029806;28;19933;-83
2022/02/09 13:08:11;;;;;;;;;;;11.30;99.90;;;9.86;100.00;101412.34;5010796;28;20016;-83
2022/02/09 13:10:40;;;;;;;;;;;11.30;99.90;;;9.74;100.00;101403.56;5030164;28;19972;-83
2022/02/09 13:13:12;;;;;;;;;;;11.30;99.90;;;9.66;100.00;101408.94;5024898;28;19936;-83
2022/02/09 13:15:47;;;;;;;;;;;11.30;99.90;;;9.78;100.00;101404.09;5030598;28;19933;-82
2022/02/09 13:18:44;;;;;;;;;;;11.30;99.90;;;9.84;100.00;101399.91;5029524;28;19933;-83
2022/02/09 13:25:02;;;;;;;;;;;11.30;99.90;;;9.84;100.00;101402.63;5007032;28;19925;-84
2022/02/09 13:53:26;;;;;;;;;;;11.70;99.90;;;10.16;99.11;101383.81;5028014;28;19967;-83
2022/02/09 14:12:50;;;;;;;;;;;11.50;99.90;;;10.01;97.72;101377.25;5027382;28;20032;-83
2022/02/09 14:31:42;;;;;;;;;;;11.50;99.90;;;9.96;98.35;101385.91;5025826;28;19929;-83
2022/02/09 14:50:04;;;;;;;;;;;11.40;99.90;;;9.83;98.41;101376.47;5025027;28;19944;-83
2022/02/09 14:54:54;;;;;;;;;;;11.40;99.90;;;9.82;98.58;101372.03;5028403;28;20023;-82
2022/02/09 14:57:27;;;;;;;;;;;11.40;99.90;;;9.79;98.30;101379.50;5029007;28;19933;-83
2022/02/09 15:00:07;;;;;;;;;;;11.40;99.90;;;9.81;97.81;101373.06;5031380;28;19935;-82
2022/02/09 15:02:51;;;;;;;;;;;11.40;99.90;;;9.77;98.87;101381.50;5030444;28;19998;-83
2022/02/09 15:08:11;;;;;;;;;;;11.30;99.90;;;9.84;98.62;101375.44;5032465;28;19972;-85
2022/02/09 15:10:43;;;;;;;;;;;11.40;99.90;;;9.87;98.28;101383.28;5030735;28;20236;-86
2022/02/09 15:13:30;;;;;;;;;;;11.40;99.90;;;9.90;98.06;101369.34;5030563;28;19929;-86
2022/02/09 15:16:06;;;;;;;;;;;11.30;99.90;;;9.88;96.88;101366.81;5033498;28;20317;-86
2022/02/09 15:19:04;;;;;;;;;;;11.40;99.90;;;9.92;97.47;101372.81;5031259;28;20365;-86
2022/02/09 15:24:20;;;;;;;;;;;11.40;99.90;;;9.92;97.71;101365.50;5026636;28;19929;-86
2022/02/09 15:26:49;;;;;;;;;;;11.40;99.90;;;9.89;98.02;101360.34;5024286;28;19972;-86
2022/02/09 15:29:18;;;;;;;;;;;11.40;99.90;;;9.95;97.07;101367.88;5028500;28;19983;-87
2022/02/09 15:31:47;;;;;;;;;;;11.40;99.90;;;9.98;98.05;101367.56;5029809;28;20027;-86
2022/02/09 15:34:17;;;;;;;;;;;11.40;99.90;;;9.96;96.79;101366.03;5032175;28;19929;-87
2022/02/09 15:39:28;;;;;;;;;;;11.40;99.90;;;9.89;97.03;101367.66;5027243;28;19936;-87
2022/02/09 15:42:04;;;;;;;;;;;11.40;99.90;;;9.90;97.46;101367.50;5032014;28;20007;-87
2022/02/09 15:58:47;;;;;;;;;;;11.30;99.90;;;9.75;96.50;101361.78;5018485;28;19936;-83
2022/02/09 16:07:39;;;;;;;;;;;11.30;99.90;;;9.78;97.47;101361.47;5030225;28;19929;-83
2022/02/09 16:09:46;;;;;;;;;;;11.30;99.90;;;9.85;98.14;101355.41;5030450;28;19951;-84
2022/02/09 16:23:36;;;;;;;;;;;11.20;99.90;;;9.76;98.56;101349.91;5051247;28;19979;-92
2022/02/09 16:37:49;;;;;;;;;;;11.10;99.90;;;9.80;99.06;101347.72;5036102;28;20381;-93
2022/02/09 16:46:12;;;;;;;;;;;11.00;99.90;;;9.70;99.07;101345.09;5025676;28;19982;-92
2022/02/09 16:48:44;;;;;;;;;;;11.00;99.90;;;9.67;98.82;101348.16;5049383;28;19932;-92
2022/02/09 16:51:17;;;;;;;;;;;11.00;99.90;;;9.63;97.94;101341.31;5033087;28;19933;-92
2022/02/09 17:20:29;;;;;;;;;;;10.90;99.90;;;9.45;98.54;101341.34;5029889;28;20028;-90
2022/02/09 17:22:56;;;;;;;;;;;10.90;99.90;;;9.51;99.20;101350.72;5028493;28;19929;-89
2022/02/09 17:25:25;;;;;;;;;;;10.90;99.90;;;9.52;99.54;101338.84;5030017;28;20312;-89
2022/02/09 17:27:52;;;;;;;;;;;10.90;99.90;;;9.52;99.26;101346.97;5029806;28;20387;-89
2022/02/09 17:30:54;;;;;;;;;;;10.90;99.90;;;9.55;98.82;101354.84;5028460;28;19933;-89
2022/02/09 17:33:36;;;;;;;;;;;10.80;99.90;;;9.55;99.58;101354.84;5030482;28;19929;-88
2022/02/09 17:36:10;;;;;;;;;;;10.90;99.90;;;9.56;99.37;101346.53;5029240;28;19929;-88
2022/02/09 17:38:44;;;;;;;;;;;10.90;99.90;;;9.55;98.95;101349.41;5029369;28;20301;-88
2022/02/09 17:55:28;;;;;;;;;;;10.90;99.90;;;9.55;99.51;101343.97;5029776;28;19929;-84
2022/02/09 17:58:03;;;;;;;;;;;10.90;99.90;;;9.50;97.86;101351.72;5009917;28;19929;-84
2022/02/09 18:00:30;;;;;;;;;;;10.90;99.90;;;9.45;97.94;101348.66;5026130;28;19976;-84
2022/02/09 18:02:57;;;;;;;;;;;10.90;99.90;;;9.46;98.24;101353.06;5028776;28;19935;-84
2022/02/09 18:05:29;;;;;;;;;;;10.90;99.90;;;9.43;99.09;101350.66;5029227;28;19929;-84
2022/02/09 18:07:59;;;;;;;;;;;10.90;99.90;;;9.44;97.76;101352.34;5027901;28;20472;-84
2022/02/09 18:10:43;;;;;;;;;;;10.90;99.90;;;9.48;99.21;101349.19;5029666;28;19929;-86
2022/02/09 18:25:12;;;;;;;;;;;10.80;99.90;;;9.47;98.69;101347.47;5019079;28;20309;-86
2022/02/09 18:30:09;;;;;;;;;;;10.80;99.90;;;9.32;97.55;101352.59;5025926;28;19960;-85
2022/02/09 18:38:46;;;;;;;;;;;10.90;99.90;;;9.34;98.11;101337.00;5011112;28;20020;-86
2022/02/09 18:44:07;;;;;;;;;;;10.80;99.90;;;9.46;98.85;101342.19;5020231;28;19933;-85
2022/02/09 18:46:52;;;;;;;;;;;10.80;99.90;;;9.48;99.00;101330.16;5015898;28;19929;-87
2022/02/09 19:03:29;;;;;;;;;;;10.80;99.90;;;9.50;98.61;101324.56;4964381;28;19937;-86
2022/02/09 19:06:00;;;;;;;;;;;10.80;99.90;;;9.50;99.25;101322.72;5015942;28;19948;-87
2022/02/09 19:08:50;;;;;;;;;;;10.80;99.90;;;9.50;98.45;101314.56;5028531;28;19929;-86
2022/02/09 19:16:52;;;;;;;;;;;10.80;99.90;;;9.48;99.10;101304.84;5019777;28;20798;-93
2022/02/09 19:19:50;;;;;;;;;;;10.80;99.90;;;9.43;99.46;101299.91;5007133;28;19933;-93
2022/02/09 19:30:41;;;;;;;;;;;10.60;99.90;;;9.21;99.25;101295.78;5024037;28;19936;-91
2022/02/09 19:47:00;;;;;;;;;;;10.50;99.90;;;8.99;98.76;101284.41;5030699;28;19960;-92
2022/02/09 19:55:54;;;;;;;;;;;10.40;99.90;;;8.97;99.77;101281.00;5027211;28;19929;-92
2022/02/09 19:58:23;;;;;;;;;;;10.40;99.90;;;8.97;98.52;101280.16;5035184;28;19979;-92
2022/02/09 20:00:59;;;;;;;;;;;10.40;99.90;;;8.97;99.76;101275.56;5025476;28;19937;-92
2022/02/09 20:03:27;;;;;;;;;;;10.40;99.90;;;8.99;99.37;101268.13;5027829;28;19935;-92
2022/02/09 20:05:54;;;;;;;;;;;10.40;99.90;;;8.95;99.61;101268.59;5011772;28;19933;-93
2022/02/09 20:08:25;;;;;;;;;;;10.40;99.90;;;8.99;99.65;101272.72;5030516;28;19936;-92
2022/02/09 20:10:55;;;;;;;;;;;10.40;99.90;;;8.97;99.98;101269.28;5027248;28;19932;-91
2022/02/09 20:13:23;;;;;;;;;;;10.40;99.90;;;8.97;99.62;101270.13;5027895;28;19933;-92
2022/02/09 20:15:57;;;;;;;;;;;10.40;99.90;;;8.95;100.00;101266.72;5028481;28;19929;-92
2022/02/09 20:18:24;;;;;;;;;;;10.40;99.90;;;8.93;99.82;101262.44;5017736;28;20382;-91
2022/02/09 20:20:56;;;;;;;;;;;10.40;99.90;;;8.96;100.00;101265.69;5023863;28;20035;-91
2022/02/09 20:23:47;;;;;;;;;;;10.30;99.90;;;8.93;100.00;101268.75;5028185;28;19971;-92
2022/02/09 20:26:21;;;;;;;;;;;10.30;99.90;;;8.94;100.00;101265.00;5025560;28;19940;-92
2022/02/09 20:28:55;;;;;;;;;;;10.30;99.90;;;8.95;100.00;101272.16;5029168;28;19975;-91
2022/02/09 20:31:29;;;;;;;;;;;10.30;99.90;;;8.94;100.00;101265.00;5029514;28;20381;-93
2022/02/09 20:34:30;;;;;;;;;;;10.50;99.90;;;8.95;100.00;101261.31;5029865;28;19933;-92
2022/02/09 20:37:01;;;;;;;;;;;10.30;99.90;;;8.97;100.00;101264.72;5025844;28;19929;-92
2022/02/09 20:39:51;;;;;;;;;;;10.30;99.90;;;8.97;100.00;101253.84;5027111;28;20484;-92
2022/02/09 20:42:31;;;;;;;;;;;10.30;99.90;;;8.97;100.00;101258.44;5028054;28;19929;-92
2022/02/09 20:45:04;;;;;;;;;;;10.30;99.90;;;8.97;99.94;101258.44;5028710;28;19991;-91
2022/02/09 20:47:36;;;;;;;;;;;10.30;99.90;;;8.93;100.00;101257.88;5029342;28;19929;-92
2022/02/09 20:50:04;;;;;;;;;;;10.30;99.90;;;8.95;100.00;101260.47;5011609;28;19933;-91
2022/02/09 20:52:31;;;;;;;;;;;10.30;99.90;;;8.95;100.00;101261.31;5027336;28;19940;-92
2022/02/09 20:54:59;;;;;;;;;;;10.30;99.90;;;8.96;100.00;101262.16;5008290;28;19933;-90
2022/02/09 20:57:32;;;;;;;;;;;10.30;99.90;;;8.97;100.00;101259.28;5026749;28;19929;-90
2022/02/09 21:00:07;;;;;;;;;;;10.30;99.90;;;8.96;100.00;101254.84;5006064;28;19935;-91
2022/02/09 21:02:49;;;;;;;;;;;10.30;99.90;;;9.02;100.00;101266.94;5025540;28;19940;-91
2022/02/09 21:05:46;;;;;;;;;;;10.30;99.90;;;8.96;100.00;101252.13;5029014;28;20463;-91
2022/02/09 21:08:27;;;;;;;;;;;10.30;99.90;;;8.99;100.00;101257.25;5025268;28;20404;-90
2022/02/09 21:11:05;;;;;;;;;;;10.30;99.90;;;8.99;100.00;101248.28;5029918;28;20400;-91
2022/02/09 21:13:43;;;;;;;;;;;10.30;99.90;;;8.99;100.00;101243.69;5030029;28;19985;-91
2022/02/09 21:16:29;;;;;;;;;;;10.30;99.90;;;8.97;100.00;101242.16;5029240;28;20023;-92
2022/02/09 21:22:09;;;;;;;;;;;10.30;99.90;;;9.03;100.00;101246.09;5022487;28;20005;-88
2022/02/09 21:33:39;;;;;;;;;;;10.30;99.90;;;9.06;100.00;101243.06;5126890;27;19976;-92
2022/02/09 21:44:58;;;;;;;;;;;10.30;99.90;;;8.93;99.32;101246.16;5128513;27;20410;-90
2022/02/09 21:53:44;;;;;;;;;;;10.40;99.90;;;8.91;99.31;101221.91;5105786;28;19928;-90
2022/02/09 21:56:19;;;;;;;;;;;10.40;99.90;;;8.91;100.00;101227.34;5109769;28;20454;-91
2022/02/09 21:58:58;;;;;;;;;;;10.40;99.90;;;8.92;100.00;101223.59;5116806;28;20370;-90
2022/02/09 22:16:15;;;;;;;;;;;10.30;99.90;;;8.91;99.24;101216.47;5107022;28;19951;-91
2022/02/09 22:21:43;;;;;;;;;;;10.30;99.90;;;8.93;100.00;101198.16;5060982;28;19955;-84
2022/02/09 22:27:26;;;;;;;;;;;10.30;99.90;;;8.94;100.00;101189.00;5102176;27;19920;-82
2022/02/09 22:30:33;;;;;;;;;;;10.30;99.90;;;8.95;100.00;101190.72;5086043;28;20018;-82
2022/02/09 22:50:09;;;;;;;;;;;10.20;99.90;;;8.87;100.00;101174.38;5086103;28;19982;-82
2022/02/09 22:55:23;;;;;;;;;;;10.30;99.90;;;8.91;100.00;101177.59;5078048;28;20026;-81
2022/02/09 22:57:56;;;;;;;;;;;10.20;99.90;;;8.89;100.00;101171.47;5065644;28;19924;-82
2022/02/09 23:00:48;;;;;;;;;;;10.20;99.90;;;8.89;100.00;101166.03;5077519;28;20406;-82
2022/02/09 23:03:22;;;;;;;;;;;10.20;99.90;;;8.89;100.00;101169.63;5085594;28;19935;-82
2022/02/09 23:06:07;;;;;;;;;;;10.20;99.90;;;8.89;100.00;101163.34;5085999;28;19928;-83
2022/02/09 23:14:27;;;;;;;;;;;10.20;99.90;;;8.86;100.00;101153.66;5088087;28;19931;-82
